Time;durP1;ratioP1;P1;durP2;ratioP2;P2;SDS_P1;SDS_P2;PMS_P1;PMS_P2;Temp;Humidity;BMP_temperature;BMP_pressure;BME280_temperature;BME280_humidity;BME280_pressure;Samples;Min_cycle;Max_cycle;Signal;HPM_P1;HPM_P2
2023/08/30 00:01:11;;;;;;;12.65;9.07;;;14.00;99.90;;;;;;5111772;28;20052;-75
2023/08/30 00:03:57;;;;;;;13.43;9.80;;;14.00;99.90;;;;;;5113448;28;20464;-71
2023/08/30 00:06:43;;;;;;;14.60;8.73;;;14.00;99.90;;;;;;5113398;28;20065;-79
2023/08/30 00:09:29;;;;;;;12.43;8.63;;;13.90;99.90;;;;;;5111674;28;20052;-77
2023/08/30 00:12:15;;;;;;;11.77;8.48;;;13.90;99.90;;;;;;5113313;28;20828;-80
2023/08/30 00:15:02;;;;;;;11.05;6.93;;;13.90;99.90;;;;;;5112509;28;20128;-80
2023/08/30 00:17:48;;;;;;;11.10;7.70;;;13.80;99.90;;;;;;5113223;28;20045;-75
2023/08/30 00:20:34;;;;;;;9.98;8.10;;;13.80;99.90;;;;;;5113067;28;20415;-69
2023/08/30 00:23:21;;;;;;;12.70;8.20;;;13.80;99.90;;;;;;5112950;28;20506;-73
2023/08/30 00:26:07;;;;;;;13.05;8.40;;;13.80;99.90;;;;;;5110944;28;20051;-70
2023/08/30 00:28:53;;;;;;;17.10;8.68;;;13.80;99.90;;;;;;5112716;28;20079;-77
2023/08/30 00:31:39;;;;;;;10.23;7.75;;;13.80;99.90;;;;;;5112346;28;20130;-80
2023/08/30 00:34:25;;;;;;;12.98;8.50;;;13.80;99.90;;;;;;5110998;28;20051;-70
2023/08/30 00:37:11;;;;;;;12.38;8.60;;;13.80;99.90;;;;;;5112511;28;20450;-69
2023/08/30 00:39:59;;;;;;;13.15;9.70;;;13.80;99.90;;;;;;5111694;28;20047;-71
2023/08/30 00:42:45;;;;;;;16.38;11.77;;;13.80;99.90;;;;;;5111627;28;20073;-71
2023/08/30 00:45:33;;;;;;;19.27;12.77;;;13.80;99.90;;;;;;5097514;28;20047;-70
2023/08/30 00:48:20;;;;;;;19.13;14.10;;;13.90;99.90;;;;;;5113103;28;20060;-70
2023/08/30 00:51:07;;;;;;;18.50;14.10;;;13.90;99.90;;;;;;5111676;28;20046;-73
2023/08/30 00:53:55;;;;;;;20.45;14.35;;;14.00;99.90;;;;;;5112148;28;20142;-71
2023/08/30 00:56:41;;;;;;;17.52;12.10;;;14.00;99.90;;;;;;5114944;28;20048;-71
2023/08/30 00:59:27;;;;;;;17.00;11.43;;;14.00;99.90;;;;;;5111232;28;20040;-74
2023/08/30 01:02:14;;;;;;;16.10;11.77;;;14.10;99.90;;;;;;5111606;28;20100;-72
2023/08/30 01:05:00;;;;;;;17.27;12.57;;;14.10;99.90;;;;;;5111108;28;20062;-71
2023/08/30 01:07:46;;;;;;;17.45;12.70;;;14.10;99.90;;;;;;5112405;28;20403;-75
2023/08/30 01:10:46;;;;;;;18.15;13.35;;;14.10;99.90;;;;;;5111539;28;20497;-75
2023/08/30 01:13:40;;;;;;;18.85;13.38;;;14.20;99.90;;;;;;5111369;28;20054;-69
2023/08/30 01:16:26;;;;;;;19.48;13.23;;;14.10;99.90;;;;;;5113204;27;20057;-71
2023/08/30 01:19:49;;;;;;;18.92;12.90;;;14.10;99.90;;;;;;5111641;28;20070;-77
2023/08/30 01:23:05;;;;;;;18.80;13.70;;;14.10;99.90;;;;;;5111568;28;20379;-70
2023/08/30 01:26:01;;;;;;;16.08;13.05;;;14.10;99.90;;;;;;5112389;28;20055;-72
2023/08/30 01:28:49;;;;;;;21.73;14.27;;;14.10;99.90;;;;;;5109775;28;20445;-70
2023/08/30 01:31:35;;;;;;;20.95;13.90;;;14.10;99.90;;;;;;5111408;28;20094;-71
2023/08/30 01:34:22;;;;;;;19.00;13.27;;;14.10;99.90;;;;;;5110739;28;20043;-69
2023/08/30 01:37:09;;;;;;;14.57;10.77;;;14.20;99.90;;;;;;5110775;28;20051;-71
2023/08/30 01:39:56;;;;;;;19.45;13.18;;;14.20;99.90;;;;;;5111105;28;20051;-72
2023/08/30 01:42:45;;;;;;;18.05;11.98;;;14.20;99.90;;;;;;5111182;28;20044;-69
2023/08/30 01:45:34;;;;;;;18.02;13.32;;;14.20;99.90;;;;;;5110653;28;20058;-77
2023/08/30 01:48:21;;;;;;;19.10;13.07;;;14.20;99.90;;;;;;5110873;28;20411;-70
2023/08/30 01:51:07;;;;;;;17.73;12.32;;;14.20;99.90;;;;;;5110110;28;20501;-70
2023/08/30 01:53:57;;;;;;;18.08;12.95;;;14.20;99.90;;;;;;5109353;28;20059;-74
2023/08/30 01:56:43;;;;;;;18.85;12.75;;;14.20;99.90;;;;;;5111382;28;20564;-70
2023/08/30 01:59:29;;;;;;;19.17;12.80;;;14.20;99.90;;;;;;5110774;28;20461;-72
2023/08/30 02:02:15;;;;;;;18.27;12.55;;;14.20;99.90;;;;;;5095336;28;20056;-70
2023/08/30 02:05:02;;;;;;;18.50;12.05;;;14.10;99.90;;;;;;5109149;28;20138;-70
2023/08/30 02:08:01;;;;;;;19.40;11.80;;;14.10;99.90;;;;;;5109836;28;20083;-69
2023/08/30 02:10:59;;;;;;;16.63;12.63;;;14.10;99.90;;;;;;5110256;28;20052;-71
2023/08/30 02:13:46;;;;;;;17.98;13.73;;;14.10;99.90;;;;;;5110562;28;20058;-70
2023/08/30 02:16:33;;;;;;;17.23;12.93;;;14.10;99.90;;;;;;5110380;28;20055;-71
2023/08/30 02:19:21;;;;;;;20.35;12.00;;;14.00;99.90;;;;;;5109999;28;20054;-75
2023/08/30 02:22:07;;;;;;;18.85;13.27;;;14.00;99.90;;;;;;5110252;28;20528;-74
2023/08/30 02:24:53;;;;;;;16.75;12.20;;;13.90;99.90;;;;;;5108779;28;20383;-78
2023/08/30 02:27:39;;;;;;;23.27;13.38;;;13.90;99.90;;;;;;5111676;28;20091;-70
2023/08/30 02:30:25;;;;;;;17.88;12.05;;;13.80;99.90;;;;;;5109830;28;20548;-72
2023/08/30 02:33:12;;;;;;;17.33;11.70;;;13.90;99.90;;;;;;5110940;28;20054;-74
2023/08/30 02:35:58;;;;;;;18.88;13.13;;;13.80;99.90;;;;;;5110174;28;20498;-82
2023/08/30 02:38:44;;;;;;;19.42;13.80;;;13.80;99.90;;;;;;5110970;28;20052;-76
2023/08/30 02:41:30;;;;;;;18.95;12.90;;;13.70;99.90;;;;;;5110330;28;20046;-70
2023/08/30 02:44:16;;;;;;;16.80;11.75;;;13.80;99.90;;;;;;5110268;28;20075;-80
2023/08/30 02:47:03;;;;;;;19.05;11.75;;;13.70;99.90;;;;;;5110580;28;20058;-82
2023/08/30 02:49:49;;;;;;;16.15;12.65;;;13.70;99.90;;;;;;5111898;27;20051;-73
2023/08/30 02:52:35;;;;;;;18.30;12.40;;;13.70;99.90;;;;;;5111050;28;20575;-72
2023/08/30 02:55:21;;;;;;;18.70;13.05;;;13.70;99.90;;;;;;5110359;28;20048;-78
2023/08/30 02:58:07;;;;;;;19.25;13.65;;;13.60;99.90;;;;;;5109244;28;20487;-76
2023/08/30 03:00:53;;;;;;;21.63;13.27;;;13.50;99.90;;;;;;5109774;28;20047;-71
2023/08/30 03:03:40;;;;;;;21.00;13.07;;;13.50;99.90;;;;;;5110107;28;20051;-70
2023/08/30 03:06:26;;;;;;;19.70;13.98;;;13.40;99.90;;;;;;5110176;28;20065;-70
2023/08/30 03:09:12;;;;;;;17.63;12.50;;;13.40;99.90;;;;;;5113219;28;20066;-70
2023/08/30 03:11:58;;;;;;;23.85;14.30;;;13.30;99.90;;;;;;5113484;28;20142;-70
2023/08/30 03:14:44;;;;;;;16.95;12.75;;;13.30;99.90;;;;;;5113224;28;20047;-82
2023/08/30 03:17:31;;;;;;;22.70;14.23;;;13.30;99.90;;;;;;5113953;28;20100;-73
2023/08/30 03:20:17;;;;;;;19.52;13.52;;;13.20;99.90;;;;;;5116554;28;20083;-83
2023/08/30 03:23:03;;;;;;;24.42;14.30;;;13.10;99.90;;;;;;5113231;28;20047;-75
2023/08/30 03:25:49;;;;;;;20.45;13.40;;;13.10;99.90;;;;;;5112854;28;20376;-80
2023/08/30 03:28:36;;;;;;;20.17;13.85;;;13.10;99.90;;;;;;5113768;28;20048;-73
2023/08/30 03:31:22;;;;;;;20.13;12.48;;;13.20;99.90;;;;;;5114423;28;20054;-73
2023/08/30 03:34:09;;;;;;;17.90;12.68;;;13.20;99.90;;;;;;5113010;28;20090;-73
2023/08/30 03:36:55;;;;;;;18.05;12.13;;;13.20;99.90;;;;;;5113377;28;20044;-73
2023/08/30 03:39:42;;;;;;;18.05;11.63;;;13.20;99.90;;;;;;5113264;28;20483;-73
2023/08/30 03:42:28;;;;;;;18.00;12.27;;;13.10;99.90;;;;;;5115359;28;20071;-70
2023/08/30 03:45:14;;;;;;;20.20;11.23;;;13.20;99.90;;;;;;5115439;27;20052;-73
2023/08/30 03:48:01;;;;;;;20.05;12.48;;;13.10;99.90;;;;;;5098692;28;20063;-75
2023/08/30 03:50:47;;;;;;;17.15;11.65;;;13.10;99.90;;;;;;5113066;28;20044;-70
2023/08/30 03:53:33;;;;;;;19.55;13.18;;;13.10;99.90;;;;;;5113488;28;20052;-72
2023/08/30 03:56:19;;;;;;;21.63;13.02;;;13.10;99.90;;;;;;5113169;28;20410;-77
2023/08/30 03:59:05;;;;;;;17.88;12.23;;;13.00;99.90;;;;;;5111966;28;20486;-75
2023/08/30 04:01:51;;;;;;;17.70;12.43;;;13.10;99.90;;;;;;5112197;28;20048;-73
2023/08/30 04:04:37;;;;;;;15.38;11.20;;;13.10;99.90;;;;;;5112287;28;20113;-71
2023/08/30 04:07:24;;;;;;;19.92;13.35;;;13.00;99.90;;;;;;5117564;28;20052;-71
2023/08/30 04:10:10;;;;;;;18.02;12.45;;;13.00;99.90;;;;;;5113577;28;20061;-70
2023/08/30 04:12:56;;;;;;;21.08;12.65;;;13.00;99.90;;;;;;5112778;28;20150;-73
2023/08/30 04:15:42;;;;;;;17.92;12.27;;;13.10;99.90;;;;;;5112743;28;20048;-70
2023/08/30 04:18:28;;;;;;;18.95;12.10;;;13.10;99.90;;;;;;5111946;28;20055;-72
2023/08/30 04:21:14;;;;;;;17.05;12.43;;;13.10;99.90;;;;;;5112781;28;20055;-69
2023/08/30 04:24:00;;;;;;;16.30;12.02;;;13.10;99.90;;;;;;5112156;28;20080;-76
2023/08/30 04:26:49;;;;;;;19.50;13.40;;;13.10;99.90;;;;;;5111654;28;20044;-73
2023/08/30 04:29:35;;;;;;;17.35;12.32;;;13.10;99.90;;;;;;5112519;28;20095;-71
2023/08/30 04:32:22;;;;;;;20.38;14.15;;;13.10;99.90;;;;;;5112869;28;20108;-75
2023/08/30 04:35:08;;;;;;;22.20;13.75;;;13.10;99.90;;;;;;5112912;28;20059;-75
2023/08/30 04:37:54;;;;;;;19.05;13.02;;;13.20;99.90;;;;;;5118567;28;20142;-76
2023/08/30 04:40:40;;;;;;;17.17;12.55;;;13.20;99.90;;;;;;5111455;28;20060;-71
2023/08/30 04:43:26;;;;;;;18.63;12.88;;;13.20;99.90;;;;;;5111453;28;20138;-70
2023/08/30 04:46:12;;;;;;;19.20;13.52;;;13.20;99.90;;;;;;5111435;28;20056;-80
2023/08/30 04:48:59;;;;;;;23.80;14.10;;;13.30;99.90;;;;;;5110616;28;20445;-74
2023/08/30 04:51:45;;;;;;;18.13;12.75;;;13.30;99.90;;;;;;5110692;28;20491;-71
2023/08/30 04:54:31;;;;;;;17.40;12.40;;;13.30;99.90;;;;;;5112168;28;20067;-71
2023/08/30 04:57:18;;;;;;;21.55;13.35;;;13.30;99.90;;;;;;5110559;28;20063;-75
2023/08/30 05:00:05;;;;;;;21.38;14.70;;;13.40;99.90;;;;;;5111473;28;20050;-70
2023/08/30 05:02:51;;;;;;;19.10;12.52;;;13.40;99.90;;;;;;5113555;28;20052;-76
2023/08/30 05:05:37;;;;;;;18.02;12.00;;;13.40;99.90;;;;;;5111259;28;20058;-72
2023/08/30 05:08:23;;;;;;;21.70;12.38;;;13.40;99.90;;;;;;5110740;28;20086;-70
2023/08/30 05:11:10;;;;;;;20.00;12.32;;;13.40;99.90;;;;;;5111476;28;20043;-73
2023/08/30 05:13:56;;;;;;;19.25;11.82;;;13.40;99.90;;;;;;5111657;28;20048;-75
2023/08/30 05:16:42;;;;;;;24.25;14.40;;;13.50;99.90;;;;;;5111683;28;20487;-71
2023/08/30 05:19:28;;;;;;;21.70;13.18;;;13.50;99.90;;;;;;5111609;28;20047;-74
2023/08/30 05:22:14;;;;;;;20.15;13.93;;;13.50;99.90;;;;;;5112499;28;20489;-82
2023/08/30 05:25:01;;;;;;;20.52;14.38;;;13.50;99.90;;;;;;5110600;28;20400;-70
2023/08/30 05:27:48;;;;;;;21.80;14.88;;;13.50;99.90;;;;;;5111083;28;20051;-78
2023/08/30 05:30:34;;;;;;;23.58;16.38;;;13.50;99.90;;;;;;5112118;28;20376;-76
2023/08/30 05:33:20;;;;;;;22.33;14.68;;;13.50;99.90;;;;;;5116798;28;20047;-70
2023/08/30 05:36:06;;;;;;;24.20;14.77;;;13.50;99.90;;;;;;5112338;28;20104;-74
2023/08/30 05:38:52;;;;;;;25.92;14.55;;;13.50;99.90;;;;;;5096298;28;20058;-72
2023/08/30 05:41:38;;;;;;;20.42;13.55;;;13.50;99.90;;;;;;5110544;28;20487;-73
2023/08/30 05:44:25;;;;;;;22.23;14.63;;;13.50;99.90;;;;;;5111157;28;20051;-84
2023/08/30 05:47:14;;;;;;;20.33;13.52;;;13.50;99.90;;;;;;5109769;28;20071;-78
2023/08/30 05:50:00;;;;;;;22.13;14.32;;;13.50;99.90;;;;;;5113490;28;20418;-72
2023/08/30 05:52:46;;;;;;;21.25;14.20;;;13.50;99.90;;;;;;5115618;28;20048;-83
2023/08/30 05:55:32;;;;;;;20.35;13.10;;;13.60;99.90;;;;;;5110837;28;20059;-73
2023/08/30 05:58:19;;;;;;;20.30;13.73;;;13.60;99.90;;;;;;5111030;28;20047;-81
2023/08/30 06:01:08;;;;;;;20.55;13.65;;;13.60;99.90;;;;;;5109533;28;20043;-73
2023/08/30 06:03:54;;;;;;;20.73;12.35;;;13.60;99.90;;;;;;5110880;28;20047;-71
2023/08/30 06:06:40;;;;;;;21.15;13.95;;;13.70;99.90;;;;;;5113995;28;20071;-74
2023/08/30 06:09:26;;;;;;;21.38;12.68;;;13.70;99.90;;;;;;5111702;28;20138;-80
2023/08/30 06:12:12;;;;;;;17.35;12.93;;;13.70;99.90;;;;;;5110269;28;20059;-78
2023/08/30 06:14:59;;;;;;;17.73;12.35;;;13.80;99.90;;;;;;5110458;28;20059;-84
2023/08/30 06:17:46;;;;;;;17.98;12.30;;;13.80;99.90;;;;;;5109001;28;20376;-72
2023/08/30 06:20:32;;;;;;;20.30;12.68;;;13.80;99.90;;;;;;5109528;28;20079;-74
2023/08/30 06:23:19;;;;;;;21.90;14.13;;;13.80;99.90;;;;;;5110395;28;20407;-69
2023/08/30 06:26:06;;;;;;;19.98;13.40;;;13.80;99.90;;;;;;5109449;28;20039;-79
2023/08/30 06:28:52;;;;;;;20.45;13.02;;;13.80;99.90;;;;;;5110353;28;20054;-70
2023/08/30 06:31:39;;;;;;;18.85;12.70;;;13.90;99.90;;;;;;5108636;28;20044;-71
2023/08/30 06:34:25;;;;;;;18.50;12.10;;;13.90;99.90;;;;;;5110226;28;20109;-75
2023/08/30 06:37:12;;;;;;;19.58;11.75;;;13.90;99.90;;;;;;5112249;27;20048;-70
2023/08/30 06:39:58;;;;;;;18.40;12.13;;;13.90;99.90;;;;;;5109978;28;20051;-77
2023/08/30 06:42:44;;;;;;;17.67;12.38;;;14.00;99.90;;;;;;5111604;28;20051;-70
2023/08/30 06:45:30;;;;;;;23.55;13.35;;;14.00;99.90;;;;;;5113285;28;20054;-76
2023/08/30 06:48:16;;;;;;;19.48;12.77;;;14.00;99.90;;;;;;5114196;28;20785;-73
2023/08/30 06:51:03;;;;;;;20.08;12.77;;;14.10;99.90;;;;;;5114735;28;20047;-70
2023/08/30 06:53:50;;;;;;;18.20;11.95;;;14.10;99.90;;;;;;5113777;28;20048;-70
2023/08/30 06:56:36;;;;;;;22.02;12.75;;;14.20;99.90;;;;;;5114162;28;20118;-70
2023/08/30 06:59:22;;;;;;;16.33;11.75;;;14.30;99.90;;;;;;5114254;28;20517;-73
2023/08/30 07:02:09;;;;;;;19.08;12.48;;;14.40;99.90;;;;;;5113431;28;20055;-74
2023/08/30 07:04:55;;;;;;;20.95;11.98;;;14.50;99.90;;;;;;5113120;28;20082;-72
2023/08/30 07:07:41;;;;;;;21.40;12.35;;;14.60;99.90;;;;;;5114109;28;20207;-76
2023/08/30 07:10:27;;;;;;;18.38;11.60;;;14.70;99.90;;;;;;5114086;28;20043;-71
2023/08/30 07:13:14;;;;;;;21.08;11.35;;;14.70;99.90;;;;;;5114213;28;20059;-76
2023/08/30 07:16:00;;;;;;;18.63;10.48;;;14.90;99.90;;;;;;5112901;28;20051;-80
2023/08/30 07:18:46;;;;;;;15.18;9.65;;;15.00;99.90;;;;;;5115445;28;20108;-80
2023/08/30 07:21:35;;;;;;;15.25;9.18;;;15.20;99.90;;;;;;5113540;28;20140;-77
2023/08/30 07:24:22;;;;;;;11.93;7.25;;;15.30;99.90;;;;;;5115388;28;20074;-75
2023/08/30 07:27:08;;;;;;;14.73;8.30;;;15.40;99.90;;;;;;5113206;28;20499;-84
2023/08/30 07:29:54;;;;;;;12.20;7.80;;;15.60;99.90;;;;;;5114247;28;20146;-79
2023/08/30 07:32:41;;;;;;;12.63;7.50;;;15.80;99.90;;;;;;5114555;28;20124;-79
2023/08/30 07:35:27;;;;;;;13.60;7.93;;;15.90;99.90;;;;;;5111906;28;20051;-79
2023/08/30 07:38:13;;;;;;;11.32;6.95;;;15.80;99.90;;;;;;5113092;28;20395;-78
2023/08/30 07:41:00;;;;;;;11.90;7.40;;;15.80;99.90;;;;;;5115534;28;20091;-78
2023/08/30 07:43:46;;;;;;;12.35;7.60;;;15.90;99.90;;;;;;5112384;28;20051;-76
2023/08/30 07:46:32;;;;;;;11.18;6.90;;;15.80;99.90;;;;;;5113207;28;20112;-75
2023/08/30 07:49:18;;;;;;;11.95;8.00;;;15.80;99.90;;;;;;5097413;28;20055;-71
2023/08/30 07:52:05;;;;;;;12.60;8.38;;;15.90;99.90;;;;;;5112864;28;20051;-70
2023/08/30 07:54:51;;;;;;;12.50;7.05;;;15.90;99.90;;;;;;5112127;28;20074;-71
2023/08/30 07:57:37;;;;;;;14.20;8.13;;;16.00;99.90;;;;;;5113216;28;20047;-71
2023/08/30 08:00:23;;;;;;;14.35;7.72;;;16.00;99.90;;;;;;5112919;28;20089;-70
2023/08/30 08:03:10;;;;;;;14.27;8.45;;;16.10;99.90;;;;;;5114622;28;20486;-70
2023/08/30 08:05:59;;;;;;;14.52;8.30;;;16.20;99.90;;;;;;5113315;28;20047;-72
2023/08/30 08:08:46;;;;;;;11.05;6.72;;;16.40;99.90;;;;;;5110898;28;20522;-79
2023/08/30 08:11:32;;;;;;;19.45;7.80;;;16.40;99.90;;;;;;5113135;28;20490;-70
2023/08/30 08:14:19;;;;;;;11.20;6.88;;;16.50;99.90;;;;;;5111628;28;20051;-72
2023/08/30 08:17:06;;;;;;;12.05;7.65;;;16.50;99.90;;;;;;5112002;28;20055;-73
2023/08/30 08:19:52;;;;;;;10.45;6.88;;;16.50;99.90;;;;;;5112537;28;20044;-71
2023/08/30 08:22:38;;;;;;;13.10;7.35;;;16.50;99.90;;;;;;5113172;28;20410;-79
2023/08/30 08:25:24;;;;;;;14.77;7.85;;;16.50;99.90;;;;;;5112442;28;20130;-78
2023/08/30 08:28:11;;;;;;;16.98;8.55;;;16.50;99.90;;;;;;5113382;28;20139;-69
2023/08/30 08:30:57;;;;;;;12.05;7.97;;;16.50;99.90;;;;;;5111504;28;20495;-76
2023/08/30 08:33:44;;;;;;;15.60;7.65;;;16.50;99.90;;;;;;5111297;28;20062;-76
2023/08/30 08:36:30;;;;;;;13.50;8.65;;;16.60;99.90;;;;;;5111704;28;20083;-75
2023/08/30 08:39:18;;;;;;;15.55;8.20;;;16.70;99.90;;;;;;5111311;28;20557;-78
2023/08/30 08:42:04;;;;;;;14.68;8.63;;;16.60;99.90;;;;;;5112746;28;20051;-73
2023/08/30 08:44:56;;;;;;;16.98;9.15;;;16.80;99.90;;;;;;5112612;28;20082;-78
2023/08/30 08:47:44;;;;;;;16.60;8.38;;;16.80;99.90;;;;;;5111868;28;20069;-76
2023/08/30 08:50:32;;;;;;;15.82;8.77;;;16.90;99.90;;;;;;5111214;28;20650;-69
2023/08/30 08:53:18;;;;;;;15.07;8.75;;;16.90;99.90;;;;;;5112365;28;20047;-71
2023/08/30 08:56:06;;;;;;;17.42;9.48;;;16.90;99.90;;;;;;5097213;28;20465;-80
2023/08/30 08:58:52;;;;;;;15.23;10.10;;;16.90;99.90;;;;;;5113266;28;20059;-75
2023/08/30 09:01:42;;;;;;;16.60;8.85;;;16.90;99.90;;;;;;5111017;28;20047;-77
2023/08/30 09:04:32;;;;;;;15.65;9.02;;;17.00;99.90;;;;;;5111306;28;20052;-72
2023/08/30 09:07:19;;;;;;;21.45;9.80;;;17.00;99.90;;;;;;5111126;28;20056;-71
2023/08/30 09:10:06;;;;;;;16.23;9.35;;;17.00;99.90;;;;;;5111820;28;20131;-70
2023/08/30 09:12:52;;;;;;;17.15;9.57;;;17.20;99.90;;;;;;5110808;28;20418;-72
2023/08/30 09:15:38;;;;;;;15.32;9.63;;;17.30;99.90;;;;;;5110783;28;20138;-73
2023/08/30 09:18:27;;;;;;;19.88;9.73;;;17.30;99.90;;;;;;5111653;28;20050;-71
2023/08/30 09:21:13;;;;;;;17.60;9.95;;;17.40;99.90;;;;;;5111744;28;20043;-72
2023/08/30 09:24:05;;;;;;;17.90;10.98;;;17.40;99.90;;;;;;5110612;28;20445;-72
2023/08/30 09:26:54;;;;;;;14.90;9.40;;;17.60;99.90;;;;;;5112232;28;20062;-79
2023/08/30 09:29:43;;;;;;;16.30;9.90;;;17.50;99.90;;;;;;5111260;28;20047;-74
2023/08/30 09:32:29;;;;;;;13.18;8.57;;;17.40;99.90;;;;;;5110466;28;20394;-74
2023/08/30 09:35:16;;;;;;;14.60;6.97;;;17.50;99.90;;;;;;5110581;28;20147;-73
2023/08/30 09:38:02;;;;;;;11.07;5.40;;;17.40;99.90;;;;;;5110522;28;20090;-76
2023/08/30 09:40:48;;;;;;;12.68;5.70;;;17.20;99.90;;;;;;5112142;28;20052;-74
2023/08/30 09:43:35;;;;;;;16.77;5.70;;;17.20;99.90;;;;;;5111378;28;20105;-80
2023/08/30 09:46:23;;;;;;;13.38;5.75;;;17.20;99.90;;;;;;5109867;28;20083;-71
2023/08/30 09:49:09;;;;;;;13.40;5.68;;;17.20;99.90;;;;;;5111846;28;20445;-83
2023/08/30 09:51:57;;;;;;;11.07;5.40;;;17.20;99.90;;;;;;5096581;28;20067;-73
2023/08/30 09:54:45;;;;;;;11.35;4.80;;;17.30;99.90;;;;;;5111782;28;20609;-72
2023/08/30 09:57:31;;;;;;;9.30;5.00;;;17.20;99.90;;;;;;5110766;28;20051;-71
2023/08/30 10:00:18;;;;;;;7.90;3.80;;;17.30;99.90;;;;;;5110473;28;20082;-71
2023/08/30 10:03:05;;;;;;;10.00;4.28;;;17.30;99.90;;;;;;5110900;28;20070;-72
2023/08/30 10:05:52;;;;;;;9.38;4.97;;;17.40;99.90;;;;;;5110652;28;20087;-76
2023/08/30 10:08:40;;;;;;;7.03;4.07;;;17.50;99.90;;;;;;5111099;28;20120;-72
2023/08/30 10:11:29;;;;;;;10.65;4.72;;;17.40;99.90;;;;;;5109661;28;20063;-71
2023/08/30 10:14:15;;;;;;;9.05;4.78;;;17.30;99.90;;;;;;5111511;28;20052;-76
2023/08/30 10:17:08;;;;;;;11.20;5.20;;;17.30;99.90;;;;;;5109946;28;20066;-73
2023/08/30 10:19:56;;;;;;;8.63;4.65;;;17.40;99.90;;;;;;5111200;28;20047;-71
2023/08/30 10:22:43;;;;;;;9.90;5.50;;;17.40;99.90;;;;;;5109640;28;20059;-75
2023/08/30 10:25:31;;;;;;;15.55;6.78;;;17.50;99.90;;;;;;5108737;28;20048;-71
2023/08/30 10:28:21;;;;;;;10.32;4.90;;;17.40;99.90;;;;;;5110953;28;20082;-73
2023/08/30 10:31:08;;;;;;;10.25;5.82;;;17.20;99.90;;;;;;5110026;28;20040;-79
2023/08/30 10:37:56;;;;;;;10.55;4.65;;;17.10;99.90;;;;;;5113449;28;20453;-73
2023/08/30 10:40:47;;;;;;;8.68;5.03;;;16.90;99.90;;;;;;5109154;28;20479;-74
2023/08/30 10:43:35;;;;;;;8.82;5.85;;;16.80;99.90;;;;;;5109439;28;20542;-72
2023/08/30 10:46:32;;;;;;;9.75;5.15;;;16.80;99.90;;;;;;5108932;28;20059;-70
2023/08/30 10:49:19;;;;;;;9.43;5.18;;;16.80;99.90;;;;;;5109420;28;20065;-78
2023/08/30 10:52:11;;;;;;;10.23;5.82;;;16.80;99.90;;;;;;5110293;28;20410;-74
2023/08/30 10:55:13;;;;;;;11.65;5.60;;;16.80;99.90;;;;;;5108366;28;20502;-82
2023/08/30 10:58:01;;;;;;;8.65;5.60;;;16.80;99.90;;;;;;5110111;28;20050;-76
2023/08/30 11:00:47;;;;;;;8.68;5.47;;;17.00;99.90;;;;;;5112146;28;20044;-81
2023/08/30 11:03:34;;;;;;;9.30;5.70;;;17.40;99.90;;;;;;5109621;28;20054;-76
2023/08/30 11:06:21;;;;;;;7.70;4.57;;;17.50;99.90;;;;;;5110211;28;20066;-71
2023/08/30 11:09:07;;;;;;;7.93;4.85;;;17.70;99.90;;;;;;5108713;28;20051;-75
2023/08/30 11:11:54;;;;;;;9.15;4.85;;;18.00;99.90;;;;;;5110265;28;20043;-74
2023/08/30 11:14:41;;;;;;;9.93;4.75;;;18.10;99.90;;;;;;5110198;28;20147;-75
2023/08/30 11:17:27;;;;;;;8.35;4.22;;;18.10;99.90;;;;;;5111260;28;20044;-73
2023/08/30 11:20:19;;;;;;;7.97;4.55;;;18.00;99.90;;;;;;5109880;28;20047;-71
2023/08/30 11:23:06;;;;;;;9.45;5.57;;;18.20;99.90;;;;;;5109965;28;20059;-75
2023/08/30 11:25:52;;;;;;;10.90;5.30;;;18.10;99.90;;;;;;5110441;28;20036;-72
2023/08/30 11:28:45;;;;;;;8.68;5.32;;;18.20;99.90;;;;;;5110629;28;20052;-79
2023/08/30 11:31:32;;;;;;;8.85;5.22;;;18.30;99.90;;;;;;5113831;28;20067;-70
2023/08/30 11:34:21;;;;;;;8.43;4.70;;;18.10;99.90;;;;;;5114858;28;20146;-78
2023/08/30 11:37:08;;;;;;;8.30;5.30;;;18.00;99.90;;;;;;5113154;28;20044;-73
2023/08/30 11:39:58;;;;;;;7.80;5.25;;;18.10;99.90;;;;;;5115617;28;20080;-83
2023/08/30 11:42:44;;;;;;;7.88;4.75;;;18.00;99.90;;;;;;5112588;28;20532;-83
2023/08/30 11:45:34;;;;;;;9.68;5.38;;;17.80;99.90;;;;;;5114825;28;20119;-83
2023/08/30 11:48:20;;;;;;;11.35;6.40;;;17.80;99.90;;;;;;5113705;28;20054;-84
2023/08/30 11:51:07;;;;;;;9.07;5.93;;;17.70;99.90;;;;;;5113553;28;20113;-83
2023/08/30 11:53:54;;;;;;;7.70;4.55;;;17.50;99.90;;;;;;5112219;28;20047;-84
2023/08/30 11:56:40;;;;;;;7.47;4.97;;;17.60;99.90;;;;;;5113585;28;20043;-83
2023/08/30 11:59:26;;;;;;;10.85;5.75;;;17.70;99.90;;;;;;5112323;28;20059;-72
2023/08/30 12:02:13;;;;;;;6.80;4.45;;;17.70;99.90;;;;;;5114206;28;20447;-74
2023/08/30 12:05:00;;;;;;;7.80;5.15;;;17.60;99.90;;;;;;5113080;28;20494;-83
2023/08/30 12:07:46;;;;;;;6.80;4.47;;;17.80;99.90;;;;;;5111786;28;20074;-74
2023/08/30 12:10:33;;;;;;;10.40;5.60;;;17.80;99.90;;;;;;5113730;28;20060;-78
2023/08/30 12:13:21;;;;;;;11.40;5.63;;;17.90;99.90;;;;;;5114698;28;20048;-78
2023/08/30 12:16:07;;;;;;;8.15;5.40;;;17.80;99.90;;;;;;5112969;28;20055;-84
2023/08/30 12:18:53;;;;;;;9.98;5.07;;;17.80;99.90;;;;;;5112424;28;20056;-84
2023/08/30 12:21:44;;;;;;;6.03;3.88;;;17.80;99.90;;;;;;5111924;28;20048;-84
2023/08/30 12:24:50;;;;;;;8.43;5.10;;;17.70;99.90;;;;;;5110829;28;20044;-82
2023/08/30 12:27:39;;;;;;;10.02;4.85;;;17.70;99.90;;;;;;5113104;27;20050;-70
2023/08/30 12:30:25;;;;;;;6.85;4.57;;;17.70;99.90;;;;;;5111919;28;20040;-72
2023/08/30 12:33:15;;;;;;;7.75;4.60;;;17.70;99.90;;;;;;5114249;28;20094;-84
2023/08/30 12:36:03;;;;;;;7.65;4.93;;;17.60;99.90;;;;;;5111698;28;20044;-80
2023/08/30 12:38:49;;;;;;;8.60;5.55;;;17.70;99.90;;;;;;5113228;28;20044;-82
2023/08/30 12:41:35;;;;;;;10.40;5.15;;;17.60;99.90;;;;;;5110993;28;20142;-78
2023/08/30 12:44:21;;;;;;;7.60;4.53;;;17.60;99.90;;;;;;5111533;28;20090;-78
2023/08/30 12:47:07;;;;;;;7.95;4.82;;;17.60;99.90;;;;;;5111292;28;20082;-72
2023/08/30 12:49:53;;;;;;;7.25;5.28;;;17.60;99.90;;;;;;5111432;28;20058;-77
2023/08/30 12:52:39;;;;;;;10.02;5.95;;;17.60;99.90;;;;;;5112674;28;20047;-73
2023/08/30 12:55:25;;;;;;;9.65;5.35;;;17.50;99.90;;;;;;5112302;28;20055;-72
2023/08/30 12:58:13;;;;;;;7.80;5.43;;;17.40;99.90;;;;;;5112570;28;20056;-70
2023/08/30 13:00:59;;;;;;;8.45;5.53;;;17.30;99.90;;;;;;5109880;28;20085;-71
2023/08/30 13:03:45;;;;;;;10.48;7.25;;;17.20;99.90;;;;;;5110578;28;20567;-70
2023/08/30 13:06:31;;;;;;;9.50;5.97;;;17.00;99.90;;;;;;5110825;28;20055;-71
2023/08/30 13:09:18;;;;;;;10.50;6.25;;;16.90;99.90;;;;;;5109874;28;20063;-71
2023/08/30 13:12:04;;;;;;;11.27;7.10;;;16.80;99.90;;;;;;5111612;28;20074;-76
2023/08/30 13:14:50;;;;;;;9.00;5.90;;;16.70;99.90;;;;;;5111742;28;20055;-72
2023/08/30 13:17:36;;;;;;;9.52;5.60;;;16.60;99.90;;;;;;5111329;28;20047;-71
2023/08/30 13:20:22;;;;;;;8.23;5.32;;;16.60;99.90;;;;;;5111514;28;20047;-71
2023/08/30 13:23:09;;;;;;;11.32;6.38;;;16.60;99.90;;;;;;5111432;28;20154;-79
2023/08/30 13:25:55;;;;;;;12.30;6.95;;;16.60;99.90;;;;;;5112017;28;20120;-77
2023/08/30 13:28:41;;;;;;;10.57;6.35;;;16.60;99.90;;;;;;5110552;28;20128;-81
2023/08/30 13:31:28;;;;;;;8.95;5.75;;;16.60;99.90;;;;;;5110028;28;20056;-72
2023/08/30 13:34:14;;;;;;;13.32;7.28;;;16.50;99.90;;;;;;5111946;28;20649;-78
2023/08/30 13:37:00;;;;;;;9.75;6.57;;;16.70;99.90;;;;;;5110751;28;20155;-72
2023/08/30 13:39:46;;;;;;;9.40;6.53;;;16.80;99.90;;;;;;5110327;28;20051;-78
2023/08/30 13:42:35;;;;;;;10.43;6.68;;;16.90;99.90;;;;;;5111379;28;20086;-76
2023/08/30 13:45:21;;;;;;;7.88;5.78;;;17.00;99.90;;;;;;5110110;28;20095;-83
2023/08/30 13:48:07;;;;;;;9.88;7.10;;;17.10;99.90;;;;;;5111120;28;20444;-71
2023/08/30 13:50:54;;;;;;;9.00;6.85;;;17.30;99.90;;;;;;5109745;28;20047;-80
2023/08/30 13:53:40;;;;;;;9.60;7.53;;;17.50;99.90;;;;;;5109788;28;20047;-70
2023/08/30 13:56:26;;;;;;;10.57;7.57;;;17.70;99.90;;;;;;5111107;28;20449;-69
2023/08/30 13:59:12;;;;;;;8.43;5.53;;;17.80;99.90;;;;;;5113070;28;20051;-73
2023/08/30 14:01:59;;;;;;;7.20;5.90;;;17.80;99.90;;;;;;5109858;28;20063;-69
2023/08/30 14:04:45;;;;;;;12.27;5.72;;;17.80;99.90;;;;;;5112028;28;20052;-70
2023/08/30 14:07:31;;;;;;;9.50;7.15;;;17.60;99.90;;;;;;5110971;28;20094;-71
2023/08/30 14:10:18;;;;;;;8.13;5.50;;;17.50;99.90;;;;;;5110553;28;20554;-70
2023/08/30 14:13:04;;;;;;;9.90;5.93;;;17.40;99.90;;;;;;5110529;28;20059;-69
2023/08/30 14:15:50;;;;;;;9.05;4.60;;;17.30;99.90;;;;;;5109885;28;20058;-70
2023/08/30 14:18:37;;;;;;;9.38;5.75;;;17.50;99.90;;;;;;5112935;28;20051;-77